N124TL KPOU-KCXY
Flight info
| Callsign | N124TL |
|---|---|
| Flight time | 1h 8m |
| Altitude | 4500 |
| Route | VFR SOUTH WEST |
| Aircraft | BE58/L-VGD/C |
Departure
| Time | 2026-05-03 22:35 |
|---|---|
| Airport | Dutchess County Airport (KPOU) |
Arrival
| Time | 2026-05-03 23:43 |
|---|---|
| Airport | Capital City Airport (KCXY) |
| Time | Latitude | Longitude | Altitude | Speed | Heading |
|---|---|---|---|---|---|
| 2026-05-03 22:27 | 41.62758 | -73.88739 | 151 ft | 0 kts | 227° |
| 2026-05-03 22:31 | 41.62742 | -73.88744 | 151 ft | 3 kts | 176° |
| 2026-05-03 22:31 | 41.62779 | -73.88635 | 152 ft | 24 kts | 50° |
| 2026-05-03 22:31 | 41.62900 | -73.88436 | 154 ft | 30 kts | 51° |
| 2026-05-03 22:31 | 41.62976 | -73.88271 | 155 ft | 13 kts | 123° |
| 2026-05-03 22:32 | 41.62918 | -73.88197 | 155 ft | 0 kts | 137° |
| 2026-05-03 22:32 | 41.62901 | -73.88177 | 155 ft | 16 kts | 139° |
| 2026-05-03 22:32 | 41.62745 | -73.87994 | 157 ft | 33 kts | 137° |
| 2026-05-03 22:32 | 41.62593 | -73.87817 | 158 ft | 24 kts | 141° |
| 2026-05-03 22:33 | 41.62508 | -73.87768 | 158 ft | 0 kts | 181° |
| 2026-05-03 22:34 | 41.62445 | -73.87833 | 158 ft | 11 kts | 290° |
| 2026-05-03 22:34 | 41.62548 | -73.87959 | 157 ft | 60 kts | 319° |
| 2026-05-03 22:34 | 41.62987 | -73.88457 | 336 ft | 96 kts | 322° |
| 2026-05-03 22:34 | 41.63594 | -73.89050 | 534 ft | 120 kts | 323° |
| 2026-05-03 22:35 | 41.64319 | -73.89732 | 827 ft | 131 kts | 323° |
| 2026-05-03 22:35 | 41.65118 | -73.90350 | 1210 ft | 135 kts | 333° |
| 2026-05-03 22:35 | 41.65988 | -73.90826 | 1608 ft | 137 kts | 334° |
| 2026-05-03 22:35 | 41.66871 | -73.91286 | 2003 ft | 137 kts | 334° |
| 2026-05-03 22:36 | 41.67760 | -73.91744 | 2401 ft | 137 kts | 334° |
| 2026-05-03 22:36 | 41.68643 | -73.92197 | 2789 ft | 136 kts | 335° |
| 2026-05-03 22:36 | 41.69450 | -73.92824 | 3156 ft | 133 kts | 311° |
| 2026-05-03 22:36 | 41.69875 | -73.93895 | 3517 ft | 134 kts | 284° |
| 2026-05-03 22:37 | 41.69712 | -73.95139 | 3878 ft | 141 kts | 254° |
| 2026-05-03 22:37 | 41.69282 | -73.96317 | 4248 ft | 140 kts | 251° |
| 2026-05-03 22:37 | 41.68832 | -73.97488 | 4383 ft | 154 kts | 251° |
| 2026-05-03 22:37 | 41.68339 | -73.98796 | 4341 ft | 157 kts | 250° |
| 2026-05-03 22:38 | 41.67851 | -74.00095 | 4336 ft | 154 kts | 251° |
| 2026-05-03 22:38 | 41.67369 | -74.01371 | 4337 ft | 152 kts | 250° |
| 2026-05-03 22:38 | 41.66843 | -74.02608 | 4338 ft | 153 kts | 245° |
| 2026-05-03 22:38 | 41.66258 | -74.03803 | 4339 ft | 152 kts | 245° |
| 2026-05-03 22:39 | 41.65672 | -74.04993 | 4340 ft | 152 kts | 245° |
| 2026-05-03 22:39 | 41.65099 | -74.06160 | 4341 ft | 151 kts | 244° |
| 2026-05-03 22:39 | 41.64516 | -74.07346 | 4342 ft | 151 kts | 244° |
| 2026-05-03 22:39 | 41.63936 | -74.08527 | 4341 ft | 151 kts | 244° |
| 2026-05-03 22:40 | 41.63358 | -74.09703 | 4342 ft | 151 kts | 244° |
| 2026-05-03 22:40 | 41.62780 | -74.10878 | 4343 ft | 151 kts | 244° |
| 2026-05-03 22:40 | 41.62202 | -74.12053 | 4345 ft | 151 kts | 245° |
| 2026-05-03 22:40 | 41.61622 | -74.13230 | 4349 ft | 151 kts | 244° |
| 2026-05-03 22:41 | 41.61039 | -74.14415 | 4351 ft | 151 kts | 245° |
| 2026-05-03 22:41 | 41.60456 | -74.15598 | 4353 ft | 151 kts | 244° |
| 2026-05-03 22:41 | 41.59883 | -74.16762 | 4342 ft | 151 kts | 245° |
| 2026-05-03 22:41 | 41.59305 | -74.17936 | 4346 ft | 151 kts | 245° |
| 2026-05-03 22:42 | 41.58719 | -74.19124 | 4349 ft | 151 kts | 244° |
| 2026-05-03 22:42 | 41.58144 | -74.20290 | 4353 ft | 152 kts | 244° |
| 2026-05-03 22:42 | 41.57560 | -74.21474 | 4352 ft | 152 kts | 244° |
| 2026-05-03 22:42 | 41.56974 | -74.22661 | 4355 ft | 152 kts | 244° |
| 2026-05-03 22:43 | 41.56396 | -74.23831 | 4351 ft | 152 kts | 244° |
| 2026-05-03 22:43 | 41.55811 | -74.25015 | 4347 ft | 151 kts | 244° |
| 2026-05-03 22:43 | 41.55230 | -74.26189 | 4345 ft | 151 kts | 244° |
| 2026-05-03 22:43 | 41.54648 | -74.27367 | 4347 ft | 151 kts | 245° |
| 2026-05-03 22:44 | 41.54071 | -74.28534 | 4347 ft | 151 kts | 245° |
| 2026-05-03 22:44 | 41.53495 | -74.29698 | 4347 ft | 151 kts | 245° |
| 2026-05-03 22:44 | 41.52909 | -74.30881 | 4348 ft | 151 kts | 245° |
| 2026-05-03 22:44 | 41.52333 | -74.32047 | 4349 ft | 151 kts | 244° |
| 2026-05-03 22:45 | 41.51750 | -74.33224 | 4350 ft | 151 kts | 244° |
| 2026-05-03 22:45 | 41.51177 | -74.34380 | 4351 ft | 151 kts | 244° |
| 2026-05-03 22:45 | 41.50589 | -74.35566 | 4353 ft | 151 kts | 244° |
| 2026-05-03 22:45 | 41.50008 | -74.36739 | 4351 ft | 151 kts | 244° |
| 2026-05-03 22:46 | 41.49426 | -74.37910 | 4347 ft | 151 kts | 244° |
| 2026-05-03 22:46 | 41.48845 | -74.39082 | 4346 ft | 151 kts | 244° |
| 2026-05-03 22:46 | 41.48267 | -74.40245 | 4344 ft | 151 kts | 245° |
| 2026-05-03 22:46 | 41.47685 | -74.41418 | 4346 ft | 151 kts | 244° |
| 2026-05-03 22:47 | 41.47104 | -74.42587 | 4346 ft | 151 kts | 244° |
| 2026-05-03 22:47 | 41.46519 | -74.43765 | 4346 ft | 151 kts | 244° |
| 2026-05-03 22:47 | 41.45943 | -74.44923 | 4347 ft | 151 kts | 244° |
| 2026-05-03 22:47 | 41.45359 | -74.46096 | 4351 ft | 150 kts | 244° |
| 2026-05-03 22:48 | 41.44782 | -74.47257 | 4351 ft | 150 kts | 244° |
| 2026-05-03 22:48 | 41.44201 | -74.48424 | 4349 ft | 151 kts | 244° |
| 2026-05-03 22:48 | 41.43625 | -74.49580 | 4348 ft | 150 kts | 244° |
| 2026-05-03 22:48 | 41.43039 | -74.50756 | 4349 ft | 150 kts | 244° |
| 2026-05-03 22:49 | 41.42461 | -74.51917 | 4348 ft | 150 kts | 245° |
| 2026-05-03 22:49 | 41.41885 | -74.53072 | 4350 ft | 150 kts | 244° |
| 2026-05-03 22:49 | 41.41301 | -74.54243 | 4349 ft | 150 kts | 244° |
| 2026-05-03 22:49 | 41.40724 | -74.55402 | 4345 ft | 151 kts | 244° |
| 2026-05-03 22:50 | 41.40136 | -74.56578 | 4345 ft | 151 kts | 244° |
| 2026-05-03 22:50 | 41.39561 | -74.57730 | 4345 ft | 150 kts | 244° |
| 2026-05-03 22:50 | 41.38981 | -74.58892 | 4347 ft | 150 kts | 244° |
| 2026-05-03 22:50 | 41.38399 | -74.60055 | 4348 ft | 151 kts | 244° |
| 2026-05-03 22:51 | 41.37815 | -74.61223 | 4345 ft | 150 kts | 244° |
| 2026-05-03 22:51 | 41.37230 | -74.62394 | 4347 ft | 150 kts | 244° |
| 2026-05-03 22:51 | 41.36654 | -74.63545 | 4354 ft | 150 kts | 244° |
| 2026-05-03 22:51 | 41.36073 | -74.64706 | 4359 ft | 150 kts | 244° |
| 2026-05-03 22:52 | 41.35488 | -74.65874 | 4361 ft | 151 kts | 244° |
| 2026-05-03 22:52 | 41.34895 | -74.67059 | 4357 ft | 151 kts | 243° |
| 2026-05-03 22:52 | 41.34307 | -74.68233 | 4357 ft | 151 kts | 243° |
| 2026-05-03 22:52 | 41.33727 | -74.69389 | 4356 ft | 151 kts | 244° |
| 2026-05-03 22:53 | 41.33139 | -74.70563 | 4360 ft | 151 kts | 244° |
| 2026-05-03 22:53 | 41.32559 | -74.71719 | 4357 ft | 151 kts | 244° |
| 2026-05-03 22:53 | 41.31976 | -74.72882 | 4357 ft | 151 kts | 244° |
| 2026-05-03 22:53 | 41.31384 | -74.74060 | 4354 ft | 152 kts | 244° |
| 2026-05-03 22:54 | 41.30800 | -74.75223 | 4356 ft | 151 kts | 243° |
| 2026-05-03 22:54 | 41.30212 | -74.76394 | 4357 ft | 151 kts | 244° |
| 2026-05-03 22:54 | 41.29621 | -74.77570 | 4357 ft | 152 kts | 243° |
| 2026-05-03 22:54 | 41.29040 | -74.78725 | 4361 ft | 152 kts | 244° |
| 2026-05-03 22:55 | 41.28445 | -74.79909 | 4359 ft | 152 kts | 243° |
| 2026-05-03 22:55 | 41.27861 | -74.81070 | 4358 ft | 152 kts | 243° |
| 2026-05-03 22:55 | 41.27267 | -74.82250 | 4359 ft | 152 kts | 243° |
| 2026-05-03 22:55 | 41.26680 | -74.83416 | 4356 ft | 152 kts | 243° |
| 2026-05-03 22:56 | 41.26096 | -74.84576 | 4357 ft | 152 kts | 243° |
| 2026-05-03 22:56 | 41.25509 | -74.85741 | 4355 ft | 152 kts | 244° |
| 2026-05-03 22:56 | 41.24915 | -74.86918 | 4353 ft | 151 kts | 243° |
| 2026-05-03 22:56 | 41.24330 | -74.88078 | 4353 ft | 151 kts | 243° |
| 2026-05-03 22:57 | 41.23747 | -74.89235 | 4355 ft | 151 kts | 243° |
| 2026-05-03 22:57 | 41.23157 | -74.90402 | 4355 ft | 151 kts | 243° |
| 2026-05-03 22:57 | 41.22569 | -74.91567 | 4354 ft | 151 kts | 244° |
| 2026-05-03 22:57 | 41.21981 | -74.92732 | 4355 ft | 152 kts | 243° |
| 2026-05-03 22:58 | 41.21392 | -74.93900 | 4353 ft | 152 kts | 243° |
| 2026-05-03 22:58 | 41.20799 | -74.95072 | 4353 ft | 152 kts | 243° |
| 2026-05-03 22:58 | 41.20206 | -74.96246 | 4352 ft | 152 kts | 243° |
| 2026-05-03 22:58 | 41.19620 | -74.97402 | 4353 ft | 152 kts | 243° |
| 2026-05-03 22:59 | 41.19034 | -74.98560 | 4357 ft | 151 kts | 243° |
| 2026-05-03 22:59 | 41.18446 | -74.99723 | 4362 ft | 151 kts | 243° |
| 2026-05-03 22:59 | 41.17855 | -75.00889 | 4367 ft | 151 kts | 243° |
| 2026-05-03 22:59 | 41.17263 | -75.02058 | 4370 ft | 151 kts | 243° |
| 2026-05-03 23:00 | 41.16681 | -75.03206 | 4370 ft | 151 kts | 243° |
| 2026-05-03 23:00 | 41.16085 | -75.04383 | 4367 ft | 152 kts | 243° |
| 2026-05-03 23:00 | 41.15498 | -75.05540 | 4367 ft | 152 kts | 243° |
| 2026-05-03 23:00 | 41.14907 | -75.06705 | 4368 ft | 152 kts | 243° |
| 2026-05-03 23:01 | 41.14316 | -75.07870 | 4368 ft | 152 kts | 243° |
| 2026-05-03 23:01 | 41.13728 | -75.09028 | 4368 ft | 151 kts | 243° |
| 2026-05-03 23:01 | 41.13133 | -75.10199 | 4369 ft | 151 kts | 243° |
| 2026-05-03 23:01 | 41.12546 | -75.11352 | 4370 ft | 151 kts | 243° |
| 2026-05-03 23:02 | 41.11953 | -75.12521 | 4370 ft | 151 kts | 243° |
| 2026-05-03 23:02 | 41.11362 | -75.13683 | 4370 ft | 151 kts | 243° |
| 2026-05-03 23:02 | 41.10773 | -75.14841 | 4370 ft | 151 kts | 243° |
| 2026-05-03 23:02 | 41.10186 | -75.15994 | 4368 ft | 151 kts | 243° |
| 2026-05-03 23:03 | 41.09596 | -75.17152 | 4374 ft | 151 kts | 243° |
| 2026-05-03 23:03 | 41.09002 | -75.18319 | 4374 ft | 151 kts | 243° |
| 2026-05-03 23:03 | 41.08417 | -75.19468 | 4375 ft | 151 kts | 243° |
| 2026-05-03 23:03 | 41.07827 | -75.20627 | 4374 ft | 151 kts | 243° |
| 2026-05-03 23:04 | 41.07233 | -75.21790 | 4373 ft | 151 kts | 243° |
| 2026-05-03 23:04 | 41.06640 | -75.22954 | 4374 ft | 151 kts | 243° |
| 2026-05-03 23:04 | 41.06047 | -75.24115 | 4375 ft | 151 kts | 243° |
| 2026-05-03 23:04 | 41.05463 | -75.25261 | 4377 ft | 151 kts | 243° |
| 2026-05-03 23:05 | 41.04871 | -75.26421 | 4378 ft | 150 kts | 243° |
| 2026-05-03 23:05 | 41.04289 | -75.27559 | 4379 ft | 150 kts | 243° |
| 2026-05-03 23:05 | 41.03696 | -75.28719 | 4376 ft | 150 kts | 243° |
| 2026-05-03 23:05 | 41.03112 | -75.29861 | 4375 ft | 150 kts | 243° |
| 2026-05-03 23:06 | 41.02519 | -75.31021 | 4374 ft | 150 kts | 243° |
| 2026-05-03 23:06 | 41.01933 | -75.32169 | 4374 ft | 150 kts | 243° |
| 2026-05-03 23:06 | 41.01347 | -75.33312 | 4376 ft | 151 kts | 243° |
| 2026-05-03 23:06 | 41.00752 | -75.34474 | 4374 ft | 151 kts | 243° |
| 2026-05-03 23:07 | 41.00164 | -75.35622 | 4375 ft | 151 kts | 243° |
| 2026-05-03 23:07 | 40.99569 | -75.36786 | 4377 ft | 151 kts | 243° |
| 2026-05-03 23:07 | 40.98979 | -75.37936 | 4377 ft | 151 kts | 243° |
| 2026-05-03 23:07 | 40.98386 | -75.39093 | 4376 ft | 151 kts | 243° |
| 2026-05-03 23:08 | 40.97795 | -75.40245 | 4376 ft | 150 kts | 243° |
| 2026-05-03 23:08 | 40.97205 | -75.41393 | 4380 ft | 150 kts | 243° |
| 2026-05-03 23:08 | 40.96624 | -75.42527 | 4376 ft | 150 kts | 243° |
| 2026-05-03 23:08 | 40.96030 | -75.43684 | 4375 ft | 150 kts | 243° |
| 2026-05-03 23:09 | 40.95444 | -75.44823 | 4374 ft | 150 kts | 243° |
| 2026-05-03 23:09 | 40.94855 | -75.45969 | 4374 ft | 150 kts | 243° |
| 2026-05-03 23:09 | 40.94260 | -75.47127 | 4376 ft | 150 kts | 243° |
| 2026-05-03 23:09 | 40.93676 | -75.48264 | 4378 ft | 150 kts | 243° |
| 2026-05-03 23:10 | 40.93080 | -75.49422 | 4380 ft | 150 kts | 243° |
| 2026-05-03 23:10 | 40.92689 | -75.50182 | 4381 ft | 150 kts | 243° |
| 2026-05-03 23:10 | 40.91901 | -75.51713 | 4384 ft | 151 kts | 243° |
| 2026-05-03 23:10 | 40.91313 | -75.52856 | 4384 ft | 151 kts | 243° |
| 2026-05-03 23:11 | 40.90720 | -75.54006 | 4384 ft | 151 kts | 243° |
| 2026-05-03 23:11 | 40.90127 | -75.55157 | 4382 ft | 151 kts | 243° |
| 2026-05-03 23:11 | 40.89528 | -75.56318 | 4380 ft | 151 kts | 243° |
| 2026-05-03 23:11 | 40.88933 | -75.57471 | 4377 ft | 151 kts | 243° |
| 2026-05-03 23:12 | 40.88368 | -75.58566 | 4379 ft | 150 kts | 243° |
| 2026-05-03 23:12 | 40.87772 | -75.59721 | 4379 ft | 150 kts | 243° |
| 2026-05-03 23:12 | 40.87185 | -75.60858 | 4383 ft | 150 kts | 243° |
| 2026-05-03 23:12 | 40.86601 | -75.61988 | 4382 ft | 150 kts | 243° |
| 2026-05-03 23:13 | 40.86005 | -75.63143 | 4382 ft | 150 kts | 243° |
| 2026-05-03 23:13 | 40.85420 | -75.64274 | 4381 ft | 150 kts | 243° |
| 2026-05-03 23:13 | 40.84855 | -75.65367 | 4382 ft | 150 kts | 242° |
| 2026-05-03 23:13 | 40.84278 | -75.66484 | 4387 ft | 150 kts | 242° |
| 2026-05-03 23:14 | 40.83672 | -75.67654 | 4391 ft | 150 kts | 242° |
| 2026-05-03 23:14 | 40.83082 | -75.68794 | 4395 ft | 150 kts | 242° |
| 2026-05-03 23:14 | 40.82492 | -75.69935 | 4396 ft | 151 kts | 242° |
| 2026-05-03 23:14 | 40.81895 | -75.71085 | 4398 ft | 151 kts | 242° |
| 2026-05-03 23:15 | 40.81300 | -75.72234 | 4396 ft | 151 kts | 242° |
| 2026-05-03 23:15 | 40.80701 | -75.73390 | 4397 ft | 151 kts | 242° |
| 2026-05-03 23:15 | 40.80108 | -75.74532 | 4400 ft | 151 kts | 242° |
| 2026-05-03 23:15 | 40.79509 | -75.75687 | 4399 ft | 152 kts | 242° |
| 2026-05-03 23:16 | 40.78913 | -75.76836 | 4398 ft | 152 kts | 242° |
| 2026-05-03 23:16 | 40.78320 | -75.77978 | 4400 ft | 151 kts | 242° |
| 2026-05-03 23:16 | 40.77717 | -75.79138 | 4402 ft | 151 kts | 242° |
| 2026-05-03 23:16 | 40.77128 | -75.80273 | 4403 ft | 150 kts | 242° |
| 2026-05-03 23:17 | 40.76539 | -75.81406 | 4403 ft | 150 kts | 242° |
| 2026-05-03 23:17 | 40.75944 | -75.82550 | 4403 ft | 150 kts | 242° |
| 2026-05-03 23:17 | 40.75345 | -75.83701 | 4399 ft | 151 kts | 242° |
| 2026-05-03 23:17 | 40.74754 | -75.84837 | 4396 ft | 151 kts | 242° |
| 2026-05-03 23:18 | 40.74160 | -75.85978 | 4398 ft | 151 kts | 242° |
| 2026-05-03 23:18 | 40.73567 | -75.87118 | 4399 ft | 151 kts | 242° |
| 2026-05-03 23:18 | 40.72966 | -75.88271 | 4397 ft | 151 kts | 242° |
| 2026-05-03 23:18 | 40.72374 | -75.89408 | 4397 ft | 151 kts | 242° |
| 2026-05-03 23:19 | 40.71775 | -75.90555 | 4400 ft | 151 kts | 242° |
| 2026-05-03 23:19 | 40.71184 | -75.91689 | 4400 ft | 151 kts | 242° |
| 2026-05-03 23:19 | 40.70587 | -75.92834 | 4405 ft | 151 kts | 242° |
| 2026-05-03 23:19 | 40.69988 | -75.93983 | 4404 ft | 151 kts | 242° |
| 2026-05-03 23:20 | 40.69395 | -75.95118 | 4409 ft | 151 kts | 242° |
| 2026-05-03 23:20 | 40.68798 | -75.96261 | 4409 ft | 151 kts | 242° |
| 2026-05-03 23:20 | 40.68195 | -75.97415 | 4407 ft | 151 kts | 242° |
| 2026-05-03 23:20 | 40.67600 | -75.98554 | 4409 ft | 151 kts | 242° |
| 2026-05-03 23:21 | 40.67007 | -75.99686 | 4409 ft | 151 kts | 242° |
| 2026-05-03 23:21 | 40.66411 | -76.00827 | 4408 ft | 151 kts | 242° |
| 2026-05-03 23:21 | 40.65814 | -76.01968 | 4408 ft | 150 kts | 242° |
| 2026-05-03 23:21 | 40.65213 | -76.03116 | 4408 ft | 150 kts | 242° |
| 2026-05-03 23:22 | 40.64021 | -76.05392 | 4406 ft | 150 kts | 242° |
| 2026-05-03 23:22 | 40.63432 | -76.06517 | 4408 ft | 150 kts | 242° |
| 2026-05-03 23:22 | 40.62830 | -76.07665 | 4409 ft | 151 kts | 242° |
| 2026-05-03 23:23 | 40.62235 | -76.08801 | 4410 ft | 151 kts | 242° |
| 2026-05-03 23:23 | 40.61635 | -76.09945 | 4413 ft | 151 kts | 242° |
| 2026-05-03 23:23 | 40.61037 | -76.11083 | 4412 ft | 151 kts | 242° |
| 2026-05-03 23:23 | 40.60443 | -76.12215 | 4412 ft | 150 kts | 242° |
| 2026-05-03 23:24 | 40.59849 | -76.13345 | 4424 ft | 151 kts | 242° |
| 2026-05-03 23:24 | 40.59247 | -76.14492 | 4420 ft | 151 kts | 242° |
| 2026-05-03 23:24 | 40.58646 | -76.15636 | 4420 ft | 151 kts | 242° |
| 2026-05-03 23:24 | 40.58051 | -76.16767 | 4419 ft | 151 kts | 242° |
| 2026-05-03 23:25 | 40.57451 | -76.17909 | 4416 ft | 151 kts | 242° |
| 2026-05-03 23:25 | 40.56853 | -76.19044 | 4418 ft | 151 kts | 242° |
| 2026-05-03 23:25 | 40.56260 | -76.20171 | 4423 ft | 151 kts | 242° |
| 2026-05-03 23:25 | 40.55657 | -76.21317 | 4415 ft | 151 kts | 242° |
| 2026-05-03 23:26 | 40.55063 | -76.22446 | 4417 ft | 150 kts | 242° |
| 2026-05-03 23:26 | 40.54465 | -76.23581 | 4418 ft | 150 kts | 242° |
| 2026-05-03 23:26 | 40.53867 | -76.24715 | 4420 ft | 150 kts | 242° |
| 2026-05-03 23:26 | 40.53268 | -76.25851 | 4422 ft | 151 kts | 242° |
| 2026-05-03 23:27 | 40.52669 | -76.26987 | 4418 ft | 151 kts | 242° |
| 2026-05-03 23:27 | 40.52066 | -76.28130 | 4421 ft | 151 kts | 242° |
| 2026-05-03 23:27 | 40.51469 | -76.29261 | 4422 ft | 151 kts | 242° |
| 2026-05-03 23:27 | 40.50868 | -76.30399 | 4417 ft | 151 kts | 242° |
| 2026-05-03 23:28 | 40.50263 | -76.31544 | 4425 ft | 151 kts | 242° |
| 2026-05-03 23:28 | 40.49663 | -76.32680 | 4414 ft | 151 kts | 242° |
| 2026-05-03 23:28 | 40.49063 | -76.33817 | 4414 ft | 150 kts | 242° |
| 2026-05-03 23:28 | 40.48468 | -76.34943 | 4428 ft | 150 kts | 242° |
| 2026-05-03 23:29 | 40.47872 | -76.36072 | 4417 ft | 150 kts | 242° |
| 2026-05-03 23:29 | 40.47270 | -76.37212 | 4413 ft | 150 kts | 242° |
| 2026-05-03 23:29 | 40.46677 | -76.38332 | 4404 ft | 150 kts | 242° |
| 2026-05-03 23:29 | 40.46078 | -76.39462 | 4418 ft | 148 kts | 242° |
| 2026-05-03 23:30 | 40.45493 | -76.40565 | 4425 ft | 148 kts | 242° |
| 2026-05-03 23:30 | 40.44899 | -76.41688 | 4428 ft | 149 kts | 242° |
| 2026-05-03 23:30 | 40.44301 | -76.42818 | 4426 ft | 151 kts | 242° |
| 2026-05-03 23:30 | 40.43706 | -76.43938 | 4430 ft | 151 kts | 242° |
| 2026-05-03 23:31 | 40.43102 | -76.45079 | 4407 ft | 151 kts | 242° |
| 2026-05-03 23:31 | 40.42487 | -76.46241 | 4168 ft | 162 kts | 242° |
| 2026-05-03 23:31 | 40.41823 | -76.47496 | 3684 ft | 173 kts | 241° |
| 2026-05-03 23:31 | 40.41136 | -76.48785 | 3199 ft | 173 kts | 240° |
| 2026-05-03 23:32 | 40.40445 | -76.50085 | 2713 ft | 174 kts | 241° |
| 2026-05-03 23:32 | 40.39746 | -76.51399 | 2234 ft | 177 kts | 241° |
| 2026-05-03 23:32 | 40.39032 | -76.52742 | 1918 ft | 177 kts | 240° |
| 2026-05-03 23:32 | 40.38359 | -76.53999 | 1998 ft | 163 kts | 240° |
| 2026-05-03 23:33 | 40.37727 | -76.55187 | 2011 ft | 156 kts | 242° |
| 2026-05-03 23:33 | 40.37114 | -76.56338 | 2014 ft | 151 kts | 241° |
| 2026-05-03 23:33 | 40.36514 | -76.57466 | 2021 ft | 148 kts | 242° |
| 2026-05-03 23:33 | 40.35922 | -76.58579 | 2023 ft | 147 kts | 242° |
| 2026-05-03 23:34 | 40.35335 | -76.59679 | 2020 ft | 146 kts | 242° |
| 2026-05-03 23:34 | 40.34754 | -76.60770 | 2019 ft | 146 kts | 242° |
| 2026-05-03 23:34 | 40.34175 | -76.61855 | 2025 ft | 145 kts | 242° |
| 2026-05-03 23:34 | 40.33596 | -76.62942 | 2022 ft | 145 kts | 243° |
| 2026-05-03 23:35 | 40.33015 | -76.64031 | 2019 ft | 145 kts | 242° |
| 2026-05-03 23:35 | 40.32483 | -76.65093 | 2024 ft | 143 kts | 246° |
| 2026-05-03 23:35 | 40.32030 | -76.66195 | 2022 ft | 143 kts | 247° |
| 2026-05-03 23:35 | 40.31587 | -76.67310 | 2025 ft | 143 kts | 248° |
| 2026-05-03 23:36 | 40.31176 | -76.68401 | 2025 ft | 142 kts | 250° |
| 2026-05-03 23:36 | 40.30777 | -76.69555 | 2024 ft | 142 kts | 250° |
| 2026-05-03 23:36 | 40.30379 | -76.70740 | 2023 ft | 142 kts | 251° |
| 2026-05-03 23:36 | 40.29983 | -76.71939 | 2022 ft | 142 kts | 251° |
| 2026-05-03 23:37 | 40.29588 | -76.73126 | 2027 ft | 142 kts | 251° |
| 2026-05-03 23:37 | 40.29195 | -76.74309 | 2035 ft | 141 kts | 251° |
| 2026-05-03 23:37 | 40.28798 | -76.75491 | 2026 ft | 141 kts | 251° |
| 2026-05-03 23:37 | 40.28401 | -76.76671 | 2026 ft | 141 kts | 251° |
| 2026-05-03 23:38 | 40.28009 | -76.77852 | 2025 ft | 141 kts | 251° |
| 2026-05-03 23:38 | 40.27613 | -76.79035 | 2026 ft | 141 kts | 251° |
| 2026-05-03 23:38 | 40.27215 | -76.80224 | 1867 ft | 146 kts | 251° |
| 2026-05-03 23:38 | 40.26801 | -76.81462 | 1644 ft | 149 kts | 251° |
| 2026-05-03 23:39 | 40.26394 | -76.82712 | 1412 ft | 150 kts | 251° |
| 2026-05-03 23:39 | 40.25975 | -76.83984 | 1214 ft | 150 kts | 244° |
| 2026-05-03 23:39 | 40.25290 | -76.84966 | 1226 ft | 144 kts | 228° |
| 2026-05-03 23:39 | 40.24467 | -76.85709 | 1076 ft | 153 kts | 205° |
| 2026-05-03 23:40 | 40.23351 | -76.85706 | 1042 ft | 162 kts | 170° |
| 2026-05-03 23:40 | 40.22383 | -76.85216 | 1324 ft | 145 kts | 166° |
| 2026-05-03 23:40 | 40.21388 | -76.84736 | 1195 ft | 155 kts | 169° |
| 2026-05-03 23:40 | 40.20357 | -76.84238 | 1143 ft | 162 kts | 156° |
| 2026-05-03 23:41 | 40.19776 | -76.83041 | 1076 ft | 157 kts | 86° |
| 2026-05-03 23:41 | 40.19946 | -76.81662 | 967 ft | 150 kts | 72° |
| 2026-05-03 23:41 | 40.20263 | -76.80371 | 918 ft | 145 kts | 58° |
| 2026-05-03 23:41 | 40.21016 | -76.79822 | 904 ft | 120 kts | 345° |
| 2026-05-03 23:42 | 40.21785 | -76.80190 | 854 ft | 116 kts | 329° |
| 2026-05-03 23:42 | 40.22332 | -76.80767 | 1059 ft | 90 kts | 303° |
| 2026-05-03 23:42 | 40.22500 | -76.81499 | 975 ft | 94 kts | 276° |
| 2026-05-03 23:42 | 40.22429 | -76.82395 | 743 ft | 99 kts | 261° |
| 2026-05-03 23:43 | 40.22229 | -76.83260 | 553 ft | 99 kts | 255° |
| 2026-05-03 23:43 | 40.22019 | -76.84088 | 385 ft | 91 kts | 256° |
| 2026-05-03 23:43 | 40.21853 | -76.84739 | 346 ft | 60 kts | 252° |
| 2026-05-03 23:43 | 40.21780 | -76.85038 | 343 ft | 15 kts | 278° |
| 2026-05-03 23:44 | 40.21843 | -76.85127 | 341 ft | 16 kts | 322° |
| 2026-05-03 23:44 | 40.21935 | -76.85191 | 340 ft | 7 kts | 346° |
| 2026-05-03 23:44 | 40.21941 | -76.85193 | 340 ft | 0 kts | 343° |